sensor_id;sensor_type;location;lat;lon;timestamp;P1;P2;P0
47709;PMS7003;33473;51.640;5.892;2022-10-16T00:03:14;4.81;7.09;5.35
47709;PMS7003;33473;51.640;5.892;2022-10-16T00:16:35;5.65;7.42;5.68
47709;PMS7003;33473;51.640;5.892;2022-10-16T00:29:55;4.45;7.31;5.46
47709;PMS7003;33473;51.640;5.892;2022-10-16T00:43:14;4.33;6.44;5.02
47709;PMS7003;33473;51.640;5.892;2022-10-16T00:56:36;4.45;6.44;4.91
47709;PMS7003;33473;51.640;5.892;2022-10-16T01:09:57;3.36;6.22;4.59
47709;PMS7003;33473;51.640;5.892;2022-10-16T01:23:18;2.64;5.46;3.93
47709;PMS7003;33473;51.640;5.892;2022-10-16T01:36:40;2.52;5.35;4.04
47709;PMS7003;33473;51.640;5.892;2022-10-16T01:50:00;3.12;6.11;4.37
47709;PMS7003;33473;51.640;5.892;2022-10-16T02:03:19;2.76;5.57;4.15
47709;PMS7003;33473;51.640;5.892;2022-10-16T02:16:41;2.4;5.46;4.04
47709;PMS7003;33473;51.640;5.892;2022-10-16T02:30:02;2.04;5.13;3.82
47709;PMS7003;33473;51.640;5.892;2022-10-16T02:43:23;2.16;5.13;3.71
47709;PMS7003;33473;51.640;5.892;2022-10-16T02:56:43;1.56;4.48;3.28
47709;PMS7003;33473;51.640;5.892;2022-10-16T03:10:02;1.2;4.26;3.28
47709;PMS7003;33473;51.640;5.892;2022-10-16T03:23:22;0.84;3.93;3.17
47709;PMS7003;33473;51.640;5.892;2022-10-16T03:36:42;0.84;4.04;3.28
47709;PMS7003;33473;51.640;5.892;2022-10-16T03:50:03;1.44;3.82;2.84
47709;PMS7003;33473;51.640;5.892;2022-10-16T04:03:25;0.36;3.61;2.84
47709;PMS7003;33473;51.640;5.892;2022-10-16T04:16:46;0.24;3.39;2.84
47709;PMS7003;33473;51.640;5.892;2022-10-16T04:30:07;0.24;3.39;2.52
47709;PMS7003;33473;51.640;5.892;2022-10-16T04:43:29;0.01;3.17;2.52
47709;PMS7003;33473;51.640;5.892;2022-10-16T04:56:50;0.01;3.06;2.3
47709;PMS7003;33473;51.640;5.892;2022-10-16T05:10:11;0.24;2.95;2.3
47709;PMS7003;33473;51.640;5.892;2022-10-16T05:23:31;0.0;3.28;2.52
47709;PMS7003;33473;51.640;5.892;2022-10-16T05:36:53;0.01;3.06;2.41
47709;PMS7003;33473;51.640;5.892;2022-10-16T05:50:12;0.24;2.84;2.3
47709;PMS7003;33473;51.640;5.892;2022-10-16T06:03:34;0.0;2.95;2.3
47709;PMS7003;33473;51.640;5.892;2022-10-16T06:16:54;0.72;3.17;2.52
47709;PMS7003;33473;51.640;5.892;2022-10-16T06:30:14;0.01;3.17;2.41
47709;PMS7003;33473;51.640;5.892;2022-10-16T06:43:35;0.01;3.06;2.41
47709;PMS7003;33473;51.640;5.892;2022-10-16T06:56:56;0.84;3.39;2.41
47709;PMS7003;33473;51.640;5.892;2022-10-16T07:10:16;0.36;3.17;2.52
47709;PMS7003;33473;51.640;5.892;2022-10-16T07:23:37;0.24;3.39;2.73
47709;PMS7003;33473;51.640;5.892;2022-10-16T07:36:59;1.44;3.82;2.62
47709;PMS7003;33473;51.640;5.892;2022-10-16T07:50:20;0.24;3.17;2.52
47709;PMS7003;33473;51.640;5.892;2022-10-16T08:03:41;0.01;3.17;2.19
47709;PMS7003;33473;51.640;5.892;2022-10-16T08:17:03;0.01;2.73;1.97
47709;PMS7003;33473;51.640;5.892;2022-10-16T08:30:24;0.01;2.84;2.19
47709;PMS7003;33473;51.640;5.892;2022-10-16T08:43:45;0.01;2.41;1.75
47709;PMS7003;33473;51.640;5.892;2022-10-16T08:57:06;0.48;2.73;1.86
47709;PMS7003;33473;51.640;5.892;2022-10-16T09:10:26;0.84;2.3;1.86
47709;PMS7003;33473;51.640;5.892;2022-10-16T09:23:47;0.01;2.19;1.75
47709;PMS7003;33473;51.640;5.892;2022-10-16T09:37:09;0.01;2.73;1.75
47709;PMS7003;33473;51.640;5.892;2022-10-16T09:50:30;0.01;2.08;1.54
47709;PMS7003;33473;51.640;5.892;2022-10-16T10:03:51;0.01;1.86;
47709;PMS7003;33473;51.640;5.892;2022-10-16T10:17:11;1.32;1.86;
47709;PMS7003;33473;51.640;5.892;2022-10-16T10:30:32;0.01;1.75;1.21
47709;PMS7003;33473;51.640;5.892;2022-10-16T10:43:54;0.01;1.75;
47709;PMS7003;33473;51.640;5.892;2022-10-16T10:57:15;0.01;2.3;1.21
47709;PMS7003;33473;51.640;5.892;2022-10-16T11:10:36;0.01;1.75;
47709;PMS7003;33473;51.640;5.892;2022-10-16T11:23:56;0.01;1.86;1.21
47709;PMS7003;33473;51.640;5.892;2022-10-16T11:37:17;1.2;1.86;1.21
47709;PMS7003;33473;51.640;5.892;2022-10-16T11:50:37;0.01;1.86;
47709;PMS7003;33473;51.640;5.892;2022-10-16T12:03:58;0.01;1.97;1.21
47709;PMS7003;33473;51.640;5.892;2022-10-16T12:17:19;0.01;1.86;
47709;PMS7003;33473;51.640;5.892;2022-10-16T12:30:39;0.01;1.54;
47709;PMS7003;33473;51.640;5.892;2022-10-16T12:43:59;0.01;1.43;
47709;PMS7003;33473;51.640;5.892;2022-10-16T12:57:20;0.01;1.54;
47709;PMS7003;33473;51.640;5.892;2022-10-16T13:10:40;0.01;1.21;
47709;PMS7003;33473;51.640;5.892;2022-10-16T13:24:00;0.01;1.32;
47709;PMS7003;33473;51.640;5.892;2022-10-16T13:37:21;0.01;1.32;
47709;PMS7003;33473;51.640;5.892;2022-10-16T13:50:42;0.01;1.32;1.21
47709;PMS7003;33473;51.640;5.892;2022-10-16T14:04:03;0.01;1.21;
47709;PMS7003;33473;51.640;5.892;2022-10-16T14:17:25;0.01;1.64;1.21
47709;PMS7003;33473;51.640;5.892;2022-10-16T14:30:44;0.01;1.75;
47709;PMS7003;33473;51.640;5.892;2022-10-16T14:44:06;0.01;1.64;
47709;PMS7003;33473;51.640;5.892;2022-10-16T14:57:27;0.01;1.86;1.43
47709;PMS7003;33473;51.640;5.892;2022-10-16T15:10:49;0.01;1.86;1.64
47709;PMS7003;33473;51.640;5.892;2022-10-16T15:24:10;0.01;2.08;1.54
47709;PMS7003;33473;51.640;5.892;2022-10-16T15:37:31;1.08;2.62;2.19
47709;PMS7003;33473;51.640;5.892;2022-10-16T15:50:52;0.01;2.41;1.75
47709;PMS7003;33473;51.640;5.892;2022-10-16T16:04:14;0.48;2.41;2.19
47709;PMS7003;33473;51.640;5.892;2022-10-16T16:17:35;0.01;2.84;2.19
47709;PMS7003;33473;51.640;5.892;2022-10-16T16:30:55;0.96;3.06;2.62
47709;PMS7003;33473;51.640;5.892;2022-10-16T16:44:16;0.6;3.82;2.95
47709;PMS7003;33473;51.640;5.892;2022-10-16T16:57:37;4.57;3.39;2.3
47709;PMS7003;33473;51.640;5.892;2022-10-16T17:10:58;0.24;2.62;1.97
47709;PMS7003;33473;51.640;5.892;2022-10-16T17:24:20;1.2;3.17;2.52
47709;PMS7003;33473;51.640;5.892;2022-10-16T17:37:39;0.24;3.17;2.41
47709;PMS7003;33473;51.640;5.892;2022-10-16T17:51:01;0.0;3.17;2.62
47709;PMS7003;33473;51.640;5.892;2022-10-16T18:04:21;1.44;4.37;3.5
47709;PMS7003;33473;51.640;5.892;2022-10-16T18:17:40;1.2;4.04;3.17
47709;PMS7003;33473;51.640;5.892;2022-10-16T18:31:02;1.44;4.48;3.61
47709;PMS7003;33473;51.640;5.892;2022-10-16T18:44:22;3.97;6.66;5.02
47709;PMS7003;33473;51.640;5.892;2022-10-16T18:57:43;4.81;6.44;5.24
47709;PMS7003;33473;51.640;5.892;2022-10-16T19:11:04;4.69;7.31;5.57
47709;PMS7003;33473;51.640;5.892;2022-10-16T19:24:26;3.24;6.11;4.59
47709;PMS7003;33473;51.640;5.892;2022-10-16T19:37:47;3.36;6.11;4.7
47709;PMS7003;33473;51.640;5.892;2022-10-16T19:51:09;3.85;6.33;4.7
47709;PMS7003;33473;51.640;5.892;2022-10-16T20:04:30;4.33;6.22;4.7
47709;PMS7003;33473;51.640;5.892;2022-10-16T20:17:50;4.81;6.77;5.13
47709;PMS7003;33473;51.640;5.892;2022-10-16T20:31:10;4.45;7.09;5.68
47709;PMS7003;33473;51.640;5.892;2022-10-16T20:44:31;5.65;6.88;5.35
47709;PMS7003;33473;51.640;5.892;2022-10-16T20:57:51;4.45;7.09;5.46
47709;PMS7003;33473;51.640;5.892;2022-10-16T21:11:10;4.09;6.99;5.35
47709;PMS7003;33473;51.640;5.892;2022-10-16T21:24:32;5.77;7.09;5.35
47709;PMS7003;33473;51.640;5.892;2022-10-16T21:37:51;5.05;7.2;5.57
47709;PMS7003;33473;51.640;5.892;2022-10-16T21:51:13;5.77;7.86;5.68
47709;PMS7003;33473;51.640;5.892;2022-10-16T22:04:34;5.29;7.86;6.11
47709;PMS7003;33473;51.640;5.892;2022-10-16T22:17:54;8.53;9.17;6.44
47709;PMS7003;33473;51.640;5.892;2022-10-16T22:31:15;8.89;9.93;7.64
47709;PMS7003;33473;51.640;5.892;2022-10-16T22:44:35;8.29;10.69;8.18
47709;PMS7003;33473;51.640;5.892;2022-10-16T22:57:56;9.73;11.89;8.84
47709;PMS7003;33473;51.640;5.892;2022-10-16T23:11:17;8.65;10.8;7.64
47709;PMS7003;33473;51.640;5.892;2022-10-16T23:24:39;9.13;10.47;7.86
47709;PMS7003;33473;51.640;5.892;2022-10-16T23:37:59;9.37;10.91;7.97
47709;PMS7003;33473;51.640;5.892;2022-10-16T23:51:20;8.65;11.02;7.97
